createdAt,value
2023-04-27T00:01:43.419Z,3.30
2023-04-27T00:04:10.482Z,3.50
2023-04-27T00:06:37.646Z,3.70
2023-04-27T00:09:04.681Z,3.80
2023-04-27T00:11:31.786Z,3.55
2023-04-27T00:13:58.730Z,3.55
2023-04-27T00:16:26.452Z,3.23
2023-04-27T00:18:53.881Z,3.53
2023-04-27T00:21:20.904Z,3.67
2023-04-27T00:23:47.852Z,4.30
2023-04-27T00:26:14.706Z,4.22
2023-04-27T00:28:41.606Z,4.03
2023-04-27T00:31:08.467Z,3.13
2023-04-27T00:33:36.133Z,3.65
2023-04-27T00:36:03.095Z,3.95
2023-04-27T00:38:30.873Z,3.40
2023-04-27T00:41:06.494Z,3.63
2023-04-27T00:43:43.716Z,3.72
2023-04-27T00:46:13.846Z,3.50
2023-04-27T00:48:42.074Z,3.25
2023-04-27T00:51:09.041Z,2.85
2023-04-27T00:53:37.620Z,3.88
2023-04-27T00:56:07.293Z,3.00
2023-04-27T00:58:34.507Z,3.10
2023-04-27T01:01:01.894Z,3.43
2023-04-27T01:03:30.171Z,3.07
2023-04-27T01:05:59.183Z,3.00
2023-04-27T01:08:26.113Z,3.50
2023-04-27T01:10:53.025Z,3.63
2023-04-27T01:13:20.378Z,3.72
2023-04-27T01:15:47.233Z,3.58
2023-04-27T01:18:14.144Z,3.20
2023-04-27T01:20:42.146Z,3.77
2023-04-27T01:23:17.253Z,3.35
2023-04-27T01:25:44.911Z,3.95
2023-04-27T01:28:11.957Z,3.88
2023-04-27T01:30:38.861Z,3.80
2023-04-27T01:35:47.186Z,3.35
2023-04-27T01:38:14.155Z,3.15
2023-04-27T01:40:41.085Z,3.53
2023-04-27T01:43:08.004Z,3.85
2023-04-27T01:45:34.847Z,3.80
2023-04-27T01:48:01.788Z,3.67
2023-04-27T01:50:28.688Z,3.72
2023-04-27T01:52:56.034Z,4.00
2023-04-27T01:55:22.873Z,4.38
2023-04-27T01:57:49.743Z,3.50
2023-04-27T02:00:17.592Z,3.63
2023-04-27T02:02:45.321Z,4.40
2023-04-27T02:05:12.316Z,4.50
2023-04-27T02:07:39.198Z,3.58
2023-04-27T02:10:07.186Z,4.30
2023-04-27T02:12:34.167Z,4.72
2023-04-27T02:15:01.120Z,4.07
2023-04-27T02:17:29.143Z,3.75
2023-04-27T02:19:56.153Z,3.75
2023-04-27T02:22:23.342Z,4.65
2023-04-27T02:24:50.265Z,3.80
2023-04-27T02:27:17.156Z,4.00
2023-04-27T02:29:44.490Z,3.58
2023-04-27T02:32:11.878Z,4.55
2023-04-27T02:34:38.709Z,3.85
2023-04-27T02:37:05.573Z,4.15
2023-04-27T02:39:32.422Z,4.05
2023-04-27T02:41:59.316Z,3.45
2023-04-27T02:44:26.894Z,3.33
2023-04-27T02:46:53.801Z,3.08
2023-04-27T02:49:20.874Z,3.63
2023-04-27T02:51:47.722Z,4.15
2023-04-27T02:54:14.558Z,4.57
2023-04-27T02:56:41.488Z,3.53
2023-04-27T02:59:08.458Z,3.70
2023-04-27T03:01:35.601Z,3.95
2023-04-27T03:04:02.763Z,3.72
2023-04-27T03:06:29.925Z,3.58
2023-04-27T03:08:56.808Z,3.90
2023-04-27T03:11:23.676Z,3.80
2023-04-27T03:13:50.734Z,3.92
2023-04-27T03:16:17.708Z,3.83
2023-04-27T03:18:44.727Z,3.92
2023-04-27T03:21:13.783Z,4.07
2023-04-27T03:23:40.843Z,3.80
2023-04-27T03:26:11.247Z,3.50
2023-04-27T03:28:39.262Z,3.90
2023-04-27T03:31:12.741Z,4.20
2023-04-27T03:33:41.142Z,4.40
2023-04-27T03:36:10.613Z,3.60
2023-04-27T03:38:38.179Z,3.40
2023-04-27T03:41:05.449Z,4.32
2023-04-27T03:43:32.343Z,3.90
2023-04-27T03:45:59.291Z,3.78
2023-04-27T03:48:26.167Z,4.28
2023-04-27T03:50:53.077Z,4.97
2023-04-27T03:53:20.017Z,4.35
2023-04-27T03:55:47.654Z,3.95
2023-04-27T03:58:14.520Z,3.65
2023-04-27T04:00:41.376Z,3.85
2023-04-27T04:03:08.628Z,4.03
2023-04-27T04:05:35.994Z,4.35
2023-04-27T04:08:03.382Z,4.30
2023-04-27T04:10:30.228Z,4.60
2023-04-27T04:12:57.093Z,4.47
2023-04-27T04:15:24.095Z,4.28
2023-04-27T04:17:51.190Z,4.05
2023-04-27T04:20:18.131Z,4.22
2023-04-27T04:22:45.081Z,4.35
2023-04-27T04:25:12.918Z,3.70
2023-04-27T04:27:41.151Z,4.10
2023-04-27T04:30:08.781Z,4.22
2023-04-27T04:32:38.024Z,3.95
2023-04-27T04:35:08.330Z,3.38
2023-04-27T04:37:36.340Z,4.88
2023-04-27T04:40:08.862Z,4.60
2023-04-27T04:42:38.970Z,5.28
2023-04-27T04:45:07.176Z,5.13
2023-04-27T04:47:34.482Z,5.82
2023-04-27T04:50:01.469Z,7.47
2023-04-27T04:52:28.644Z,4.82
2023-04-27T04:54:55.601Z,4.60
2023-04-27T04:57:22.682Z,5.47
2023-04-27T04:59:49.563Z,4.90
2023-04-27T05:02:16.583Z,5.15
2023-04-27T05:04:43.648Z,4.93
2023-04-27T05:07:14.562Z,4.38
2023-04-27T05:09:41.929Z,6.45
2023-04-27T05:12:08.960Z,4.50
2023-04-27T05:14:36.185Z,4.63
2023-04-27T05:17:03.157Z,4.57
2023-04-27T05:19:31.426Z,4.20
2023-04-27T05:22:01.151Z,4.10
2023-04-27T05:24:28.017Z,4.30
2023-04-27T05:26:55.049Z,4.03
2023-04-27T05:29:22.925Z,4.60
2023-04-27T05:31:49.925Z,4.70
2023-04-27T05:34:17.339Z,4.83
2023-04-27T05:36:44.811Z,5.27
2023-04-27T05:39:12.018Z,5.00
2023-04-27T05:41:39.419Z,5.80
2023-04-27T05:44:06.863Z,5.40
2023-04-27T05:46:34.886Z,4.90
2023-04-27T05:49:02.872Z,4.90
2023-04-27T05:51:29.831Z,4.70
2023-04-27T05:53:56.728Z,3.90
2023-04-27T05:56:23.618Z,3.77
2023-04-27T05:58:50.629Z,4.90
2023-04-27T06:01:17.586Z,4.23
2023-04-27T06:03:44.569Z,5.20
2023-04-27T06:06:11.687Z,4.40
2023-04-27T06:08:39.372Z,3.90
2023-04-27T06:11:06.678Z,4.50
2023-04-27T06:13:33.848Z,4.10
2023-04-27T06:16:01.719Z,4.30
2023-04-27T06:18:28.829Z,4.40
2023-04-27T06:21:01.614Z,3.83
2023-04-27T06:23:28.988Z,3.27
2023-04-27T06:25:56.107Z,3.90
2023-04-27T06:28:23.228Z,3.47
2023-04-27T06:30:50.276Z,3.50
2023-04-27T06:33:17.335Z,4.00
2023-04-27T06:35:47.345Z,2.97
2023-04-27T06:38:14.600Z,3.07
2023-04-27T06:40:41.819Z,3.70
2023-04-27T06:43:08.811Z,3.53
2023-04-27T06:45:35.921Z,3.30
2023-04-27T06:48:02.892Z,3.60
2023-04-27T06:50:30.424Z,2.93
2023-04-27T06:52:57.350Z,3.17
2023-04-27T06:55:24.218Z,2.97
2023-04-27T06:57:51.108Z,2.70
2023-04-27T07:00:18.909Z,2.77
2023-04-27T07:02:45.933Z,3.00
2023-04-27T07:05:12.891Z,3.00
2023-04-27T07:07:39.779Z,2.33
2023-04-27T07:10:08.184Z,2.80
2023-04-27T07:12:35.241Z,2.97
2023-04-27T07:15:04.208Z,3.23
2023-04-27T07:17:31.077Z,4.10
2023-04-27T07:19:57.927Z,2.80
2023-04-27T07:22:24.768Z,2.50
2023-04-27T07:24:51.908Z,2.77
2023-04-27T07:27:18.915Z,3.17
2023-04-27T07:29:45.956Z,2.90
2023-04-27T07:32:12.998Z,2.70
2023-04-27T07:34:52.009Z,2.60
2023-04-27T07:37:20.315Z,2.27
2023-04-27T07:39:50.344Z,2.73
2023-04-27T07:42:18.388Z,3.37
2023-04-27T07:44:45.288Z,3.43
2023-04-27T07:47:13.385Z,2.40
2023-04-27T07:49:40.779Z,3.20
2023-04-27T07:52:08.280Z,3.43
2023-04-27T07:54:35.616Z,3.70
2023-04-27T07:57:14.113Z,2.90
2023-04-27T07:59:41.713Z,3.50
2023-04-27T08:03:50.789Z,4.33
2023-04-27T08:06:19.759Z,3.77
2023-04-27T08:08:47.233Z,3.90
2023-04-27T08:11:14.175Z,3.20
2023-04-27T08:13:41.252Z,3.77
2023-04-27T08:16:08.165Z,3.47
2023-04-27T08:18:35.128Z,4.10
2023-04-27T08:21:02.024Z,3.57
2023-04-27T08:23:32.697Z,3.30
2023-04-27T08:25:59.706Z,3.30
2023-04-27T08:28:26.551Z,3.50
2023-04-27T08:30:53.408Z,5.07
2023-04-27T08:33:20.582Z,3.50
2023-04-27T08:35:47.480Z,4.10
2023-04-27T08:38:14.319Z,3.70
2023-04-27T08:40:44.424Z,3.97
2023-04-27T08:43:11.744Z,3.80
2023-04-27T08:45:50.095Z,4.37
2023-04-27T08:48:17.383Z,4.20
2023-04-27T08:50:50.215Z,4.10
2023-04-27T08:53:22.321Z,5.03
2023-04-27T08:55:52.460Z,4.60
2023-04-27T08:58:19.436Z,4.20
2023-04-27T09:00:47.784Z,3.93
2023-04-27T09:03:25.633Z,3.37
2023-04-27T09:06:00.643Z,3.70
2023-04-27T09:08:49.955Z,4.37
2023-04-27T09:11:36.637Z,3.53
2023-04-27T09:14:23.981Z,4.43
2023-04-27T09:16:57.999Z,4.90
2023-04-27T09:19:30.646Z,3.80
2023-04-27T09:22:23.773Z,4.00
2023-04-27T09:24:52.454Z,3.33
2023-04-27T09:27:23.196Z,3.10
2023-04-27T09:29:50.203Z,3.57
2023-04-27T09:32:20.720Z,3.27
2023-04-27T09:34:47.723Z,3.43
2023-04-27T09:37:15.497Z,3.30
2023-04-27T09:39:42.894Z,3.60
2023-04-27T09:42:12.976Z,3.50
2023-04-27T09:44:39.938Z,4.13
2023-04-27T09:47:07.833Z,3.73
2023-04-27T09:49:35.922Z,4.20
2023-04-27T09:52:02.821Z,4.00
2023-04-27T09:54:35.188Z,3.53
2023-04-27T09:57:51.547Z,4.30
2023-04-27T10:01:07.049Z,3.70
2023-04-27T10:04:28.320Z,3.40
2023-04-27T10:07:07.043Z,4.73
2023-04-27T10:10:02.754Z,3.97
2023-04-27T10:12:36.870Z,3.33
2023-04-27T10:15:17.776Z,3.77
2023-04-27T10:17:52.921Z,4.37
2023-04-27T10:20:36.389Z,3.80
2023-04-27T10:23:04.049Z,3.97
2023-04-27T10:25:41.149Z,4.07
2023-04-27T10:28:08.886Z,2.97
2023-04-27T10:30:39.132Z,3.77
2023-04-27T10:33:12.890Z,3.50
2023-04-27T10:35:44.318Z,3.60
2023-04-27T10:38:18.356Z,3.70
2023-04-27T10:40:57.020Z,4.43
2023-04-27T10:43:31.096Z,3.87
2023-04-27T10:46:16.310Z,4.07
2023-04-27T10:48:44.803Z,3.67
2023-04-27T10:51:17.272Z,4.13
2023-04-27T10:53:44.701Z,3.80
2023-04-27T10:56:11.673Z,3.63
2023-04-27T10:58:48.936Z,3.70
2023-04-27T11:01:27.161Z,3.80
2023-04-27T11:04:02.177Z,3.10
2023-04-27T11:06:33.075Z,3.50
2023-04-27T11:09:01.549Z,3.50
2023-04-27T11:11:28.569Z,3.30
2023-04-27T11:13:55.866Z,3.57
2023-04-27T11:16:23.591Z,3.40
2023-04-27T11:18:50.684Z,3.57
2023-04-27T11:21:23.418Z,3.80
2023-04-27T11:23:50.265Z,3.83
2023-04-27T11:26:21.682Z,3.37
2023-04-27T11:29:05.006Z,3.43
2023-04-27T11:31:47.648Z,3.90
2023-04-27T11:34:24.935Z,2.97
2023-04-27T11:37:18.026Z,4.10
2023-04-27T11:39:46.207Z,3.90
2023-04-27T11:42:28.693Z,3.33
2023-04-27T11:45:07.915Z,3.77
2023-04-27T11:47:35.901Z,3.67
2023-04-27T11:50:08.073Z,3.77
2023-04-27T11:52:42.837Z,4.00
2023-04-27T11:55:15.780Z,2.93
2023-04-27T11:57:43.268Z,3.70
2023-04-27T12:00:11.254Z,3.37
2023-04-27T12:02:39.113Z,3.60
2023-04-27T12:05:07.811Z,4.10
2023-04-27T12:07:35.616Z,3.60
2023-04-27T12:10:02.605Z,4.17
2023-04-27T12:12:29.674Z,3.30
2023-04-27T12:14:56.662Z,3.80
2023-04-27T12:17:23.588Z,4.00
2023-04-27T12:19:50.551Z,3.60
2023-04-27T12:22:17.474Z,3.90
2023-04-27T12:24:44.372Z,3.13
2023-04-27T12:27:12.030Z,3.20
2023-04-27T12:29:39.024Z,3.93
2023-04-27T12:32:06.532Z,3.40
2023-04-27T12:34:34.372Z,4.40
2023-04-27T12:37:01.304Z,3.90
2023-04-27T12:39:28.253Z,3.23
2023-04-27T12:41:55.397Z,3.97
2023-04-27T12:44:22.564Z,3.90
2023-04-27T12:46:49.765Z,3.47
2023-04-27T12:49:18.094Z,4.20
2023-04-27T12:51:47.700Z,4.13
2023-04-27T12:54:14.823Z,4.10
2023-04-27T12:56:42.178Z,4.30
2023-04-27T12:59:09.286Z,4.60
2023-04-27T13:01:36.570Z,4.00
2023-04-27T13:04:07.009Z,4.37
2023-04-27T13:06:34.214Z,4.20
2023-04-27T13:09:01.249Z,3.80
2023-04-27T13:11:28.214Z,3.60
2023-04-27T13:13:55.371Z,3.73
2023-04-27T13:16:22.567Z,4.30
2023-04-27T13:18:52.051Z,4.13
2023-04-27T13:21:19.577Z,4.30
2023-04-27T13:23:47.707Z,3.50
2023-04-27T13:26:16.130Z,4.87
2023-04-27T13:28:43.588Z,4.00
2023-04-27T13:31:11.039Z,3.87
2023-04-27T13:33:44.036Z,4.23
2023-04-27T13:36:13.094Z,4.83
2023-04-27T13:38:40.659Z,4.40
2023-04-27T13:41:08.931Z,4.10
2023-04-27T13:43:36.132Z,3.40
2023-04-27T13:46:03.609Z,4.00
2023-04-27T13:48:31.150Z,3.50
2023-04-27T13:50:58.506Z,4.27
2023-04-27T13:53:26.337Z,4.00
2023-04-27T13:55:55.897Z,3.40
2023-04-27T13:58:25.999Z,3.67
2023-04-27T14:00:53.991Z,3.40
2023-04-27T14:03:22.687Z,3.20
2023-04-27T14:05:51.214Z,3.30
2023-04-27T14:08:18.830Z,4.50
2023-04-27T14:10:46.342Z,3.43
2023-04-27T14:13:13.889Z,4.00
2023-04-27T14:15:41.674Z,4.00
2023-04-27T14:18:09.798Z,3.60
2023-04-27T14:20:38.856Z,3.23
2023-04-27T14:23:06.844Z,3.50
2023-04-27T14:25:34.675Z,4.10
2023-04-27T14:28:05.757Z,3.43
2023-04-27T14:30:33.854Z,3.10
2023-04-27T14:33:01.364Z,3.63
2023-04-27T14:35:28.727Z,3.40
2023-04-27T14:37:57.068Z,3.30
2023-04-27T14:40:24.083Z,3.47
2023-04-27T14:42:50.949Z,3.47
2023-04-27T14:45:18.753Z,3.73
2023-04-27T14:47:45.750Z,3.40
2023-04-27T14:50:12.907Z,3.20
2023-04-27T14:52:39.766Z,3.33
2023-04-27T14:55:07.848Z,3.07
2023-04-27T14:57:36.582Z,3.00
2023-04-27T15:00:09.890Z,3.00
2023-04-27T15:02:41.112Z,3.57
2023-04-27T15:05:09.022Z,3.80
2023-04-27T15:07:36.076Z,3.30
2023-04-27T15:10:03.975Z,3.10
2023-04-27T15:12:30.972Z,3.70
2023-04-27T15:14:57.870Z,3.50
2023-04-27T15:17:26.268Z,3.20
2023-04-27T15:19:53.155Z,4.10
2023-04-27T15:22:20.773Z,3.20
2023-04-27T15:24:47.768Z,3.40
2023-04-27T15:27:14.661Z,3.90
2023-04-27T15:29:41.804Z,4.23
2023-04-27T15:32:08.716Z,4.60
2023-04-27T15:34:35.675Z,4.33
2023-04-27T15:37:03.509Z,4.07
2023-04-27T15:39:30.961Z,3.43
2023-04-27T15:41:59.499Z,3.40
2023-04-27T15:44:26.804Z,4.80
2023-04-27T15:46:54.045Z,3.60
2023-04-27T15:49:21.659Z,3.43
2023-04-27T15:51:51.110Z,4.60
2023-04-27T15:54:18.358Z,3.87
2023-04-27T15:56:45.577Z,3.90
2023-04-27T15:59:12.532Z,3.60
2023-04-27T16:01:39.604Z,4.10
2023-04-27T16:04:06.701Z,3.87
2023-04-27T16:06:36.772Z,4.37
2023-04-27T16:09:04.748Z,3.87
2023-04-27T16:11:32.069Z,3.10
2023-04-27T16:13:59.435Z,3.93
2023-04-27T16:16:26.870Z,4.03
2023-04-27T16:18:54.585Z,3.77
2023-04-27T16:21:21.632Z,3.80
2023-04-27T16:23:48.770Z,3.20
2023-04-27T16:26:15.994Z,4.20
2023-04-27T16:28:43.259Z,4.50
2023-04-27T16:31:11.819Z,3.50
2023-04-27T16:33:38.839Z,4.07
2023-04-27T16:36:06.277Z,4.93
2023-04-27T16:38:33.162Z,3.80
2023-04-27T16:41:00.270Z,3.97
2023-04-27T16:43:27.149Z,4.20
2023-04-27T16:45:54.027Z,4.40
2023-04-27T16:48:20.997Z,3.60
2023-04-27T16:50:47.961Z,3.90
2023-04-27T16:53:19.477Z,3.80
2023-04-27T16:55:46.637Z,3.83
2023-04-27T16:58:13.639Z,4.03
2023-04-27T17:00:40.973Z,4.10
2023-04-27T17:03:07.910Z,3.43
2023-04-27T17:05:35.092Z,3.30
2023-04-27T17:08:04.327Z,3.63
2023-04-27T17:10:32.310Z,3.63
2023-04-27T17:12:59.692Z,3.40
2023-04-27T17:15:28.415Z,3.37
2023-04-27T17:17:56.128Z,4.10
2023-04-27T17:20:23.103Z,3.30
2023-04-27T17:22:50.267Z,4.00
2023-04-27T17:25:17.180Z,3.90
2023-04-27T17:27:44.174Z,3.43
2023-04-27T17:30:11.507Z,3.73
2023-04-27T17:32:38.585Z,4.27
2023-04-27T17:35:06.286Z,3.40
2023-04-27T17:37:33.197Z,3.30
2023-04-27T17:40:00.228Z,3.80
2023-04-27T17:42:27.189Z,3.30
2023-04-27T17:44:54.269Z,3.73
2023-04-27T17:47:22.292Z,4.13
2023-04-27T17:49:49.280Z,5.40
2023-04-27T17:52:16.158Z,3.63
2023-04-27T17:54:43.273Z,3.47
2023-04-27T17:57:10.241Z,3.60
2023-04-27T17:59:37.221Z,3.80
2023-04-27T18:02:04.199Z,3.80
2023-04-27T18:04:31.232Z,4.07
2023-04-27T18:06:58.272Z,3.97
2023-04-27T18:09:26.914Z,3.80
2023-04-27T18:11:53.900Z,3.40
2023-04-27T18:14:20.790Z,3.50
2023-04-27T18:16:47.662Z,3.70
2023-04-27T18:19:14.752Z,3.90
2023-04-27T18:21:42.016Z,3.93
2023-04-27T18:24:09.767Z,3.80
2023-04-27T18:26:36.845Z,3.90
2023-04-27T18:29:04.149Z,3.70
2023-04-27T18:31:31.155Z,4.10
2023-04-27T18:33:59.345Z,4.10
2023-04-27T18:36:27.524Z,4.47
2023-04-27T18:38:55.527Z,4.93
2023-04-27T18:41:23.005Z,4.40
2023-04-27T18:43:49.863Z,4.30
2023-04-27T18:46:16.903Z,4.93
2023-04-27T18:48:43.812Z,6.90
2023-04-27T18:51:10.842Z,4.30
2023-04-27T18:53:37.779Z,4.33
2023-04-27T18:56:06.312Z,4.40
2023-04-27T18:58:34.036Z,5.07
2023-04-27T19:01:00.999Z,4.57
2023-04-27T19:03:28.119Z,4.77
2023-04-27T19:05:55.445Z,5.40
2023-04-27T19:08:22.287Z,5.73
2023-04-27T19:10:51.561Z,5.80
2023-04-27T19:13:18.409Z,5.80
2023-04-27T19:15:45.253Z,6.53
2023-04-27T19:18:12.207Z,9.40
2023-04-27T19:20:40.492Z,8.53
2023-04-27T19:23:09.189Z,8.10
2023-04-27T19:25:36.175Z,9.53
2023-04-27T19:28:04.879Z,9.40
2023-04-27T19:30:31.820Z,10.80
2023-04-27T19:32:58.737Z,7.27
2023-04-27T19:35:27.286Z,6.10
2023-04-27T19:37:54.150Z,7.83
2023-04-27T19:40:21.302Z,8.10
2023-04-27T19:42:48.605Z,8.03
2023-04-27T19:45:17.735Z,6.63
2023-04-27T19:47:45.114Z,7.47
2023-04-27T19:50:12.441Z,6.77
2023-04-27T19:52:39.334Z,7.23
2023-04-27T19:55:07.686Z,7.13
2023-04-27T19:57:36.316Z,6.43
2023-04-27T20:00:11.582Z,5.93
2023-04-27T20:02:39.059Z,6.97
2023-04-27T20:05:07.362Z,5.43
2023-04-27T20:07:34.405Z,5.80
2023-04-27T20:10:02.652Z,4.90
2023-04-27T20:12:51.364Z,5.30
2023-04-27T20:15:16.624Z,5.50
2023-04-27T20:17:43.560Z,4.50
2023-04-27T20:20:11.253Z,4.83
2023-04-27T20:22:38.965Z,4.60
2023-04-27T20:25:07.746Z,4.53
2023-04-27T20:27:35.611Z,4.23
2023-04-27T20:30:02.952Z,4.70
2023-04-27T20:32:29.870Z,3.67
2023-04-27T20:34:56.706Z,4.27
2023-04-27T20:37:24.640Z,4.43
2023-04-27T20:39:52.042Z,4.90
2023-04-27T20:42:19.046Z,5.77
2023-04-27T20:44:46.335Z,5.90
2023-04-27T20:47:14.646Z,5.40
2023-04-27T20:49:42.312Z,6.27
2023-04-27T20:52:09.257Z,5.90
2023-04-27T20:54:36.405Z,4.90
2023-04-27T20:57:08.334Z,5.63
2023-04-27T20:59:35.327Z,5.60
2023-04-27T21:02:02.533Z,6.83
2023-04-27T21:04:29.640Z,6.17
2023-04-27T21:06:56.720Z,5.83
2023-04-27T21:09:23.596Z,6.00
2023-04-27T21:11:50.725Z,5.40
2023-04-27T21:14:17.749Z,6.20
2023-04-27T21:16:44.901Z,5.90
2023-04-27T21:19:14.636Z,4.73
2023-04-27T21:21:42.231Z,6.03
2023-04-27T21:24:09.154Z,5.33
2023-04-27T21:26:36.143Z,5.00
2023-04-27T21:29:05.401Z,5.60
2023-04-27T21:31:33.786Z,6.57
2023-04-27T21:34:03.290Z,5.70
2023-04-27T21:36:30.297Z,5.13
2023-04-27T21:38:57.181Z,5.03
2023-04-27T21:41:24.098Z,5.00
2023-04-27T21:43:51.132Z,4.83
2023-04-27T21:46:18.207Z,6.20
2023-04-27T21:48:45.327Z,5.50
2023-04-27T21:51:12.214Z,4.63
2023-04-27T21:53:39.085Z,6.00
2023-04-27T21:56:06.620Z,5.93
2023-04-27T21:58:35.985Z,5.53
2023-04-27T22:01:02.849Z,5.20
2023-04-27T22:03:29.919Z,6.30
2023-04-27T22:05:57.451Z,5.00
2023-04-27T22:08:24.597Z,5.13
2023-04-27T22:10:51.815Z,5.80
2023-04-27T22:13:19.758Z,6.73
2023-04-27T22:15:48.319Z,5.37
2023-04-27T22:18:15.787Z,7.30
2023-04-27T22:20:43.476Z,5.33
2023-04-27T22:23:10.712Z,5.40
2023-04-27T22:25:37.749Z,5.07
2023-04-27T22:28:04.972Z,4.60
2023-04-27T22:30:31.892Z,5.40
2023-04-27T22:32:59.038Z,6.53
2023-04-27T22:35:27.897Z,5.47
2023-04-27T22:37:56.343Z,5.63
2023-04-27T22:40:23.467Z,5.00
2023-04-27T22:42:50.631Z,5.63
2023-04-27T22:45:17.542Z,4.40
2023-04-27T22:47:45.582Z,4.30
2023-04-27T22:50:13.635Z,5.00
2023-04-27T22:52:42.739Z,5.23
2023-04-27T22:55:11.760Z,6.60
2023-04-27T22:57:40.248Z,7.10
2023-04-27T23:00:11.810Z,5.30
2023-04-27T23:02:40.792Z,5.83
2023-04-27T23:05:09.097Z,6.07
2023-04-27T23:07:37.016Z,4.60
2023-04-27T23:10:05.725Z,4.80
2023-04-27T23:12:33.180Z,5.53
2023-04-27T23:15:00.391Z,5.60
2023-04-27T23:17:30.713Z,5.57
2023-04-27T23:20:00.920Z,4.80
2023-04-27T23:22:28.471Z,5.57
2023-04-27T23:24:55.336Z,5.73
2023-04-27T23:27:23.521Z,5.27
2023-04-27T23:29:51.221Z,5.30
2023-04-27T23:32:18.253Z,6.50
2023-04-27T23:34:45.174Z,4.67
2023-04-27T23:37:12.184Z,5.03
2023-04-27T23:39:39.108Z,7.07
2023-04-27T23:42:06.216Z,5.83
2023-04-27T23:44:33.087Z,5.97
2023-04-27T23:46:59.924Z,6.53
2023-04-27T23:49:26.774Z,7.60
2023-04-27T23:51:53.710Z,8.83
2023-04-27T23:54:20.557Z,6.20
2023-04-27T23:56:47.502Z,6.67
2023-04-27T23:59:14.990Z,5.67
